Cotterel, Idaho
Current Conditions -  °F | °C
As of 5:53 AM on Saturday 20 Dec 2014 (Local Time) from KBYI Reporting Station
Overcast Overcast  
Wind Chill: 32°   Ceiling: 3500
Heat Index: 37°   Visibility: 10mi
Dew Point: 32°   Wind: 7mph
Humidity: 82%   Direction: 190°S
Pressure: 30.05"   Gusts: NA
Location:  42.5399°N, 113.621°W
Report Text: KBYI 201253Z AUTO 19006KT 10SM OVC035 03/00 A3005 RMK AO2 SLP181 T00280000
Loading
Personal Weather Stations






























Interactive Weather Map New forecast layout! Learn more

10-Day Weather Forecast

Advertisements
Track Severe Weather on mobile